sensor_id;sensor_type;location;lat;lon;timestamp;temperature;humidity
51839;DHT22;37886;53.174;6.368;2023-02-22T00:00:52;8.40;99.90
51839;DHT22;37886;53.174;6.368;2023-02-22T00:03:24;8.40;99.90
51839;DHT22;37886;53.174;6.368;2023-02-22T00:05:55;8.40;99.90
51839;DHT22;37886;53.174;6.368;2023-02-22T00:08:26;8.40;99.90
51839;DHT22;37886;53.174;6.368;2023-02-22T00:11:02;8.40;99.90
51839;DHT22;37886;53.174;6.368;2023-02-22T00:13:28;8.40;99.90
51839;DHT22;37886;53.174;6.368;2023-02-22T00:15:58;8.40;99.90
51839;DHT22;37886;53.174;6.368;2023-02-22T00:18:28;8.40;99.90
51839;DHT22;37886;53.174;6.368;2023-02-22T00:20:58;8.40;99.90
51839;DHT22;37886;53.174;6.368;2023-02-22T00:23:25;8.40;99.90
51839;DHT22;37886;53.174;6.368;2023-02-22T00:25:53;8.40;99.90
51839;DHT22;37886;53.174;6.368;2023-02-22T00:28:20;8.40;99.90
51839;DHT22;37886;53.174;6.368;2023-02-22T00:30:49;8.30;99.90
51839;DHT22;37886;53.174;6.368;2023-02-22T00:33:15;8.30;99.90
51839;DHT22;37886;53.174;6.368;2023-02-22T00:35:43;8.30;99.90
51839;DHT22;37886;53.174;6.368;2023-02-22T00:38:11;8.30;99.90
51839;DHT22;37886;53.174;6.368;2023-02-22T00:40:37;8.30;99.90
51839;DHT22;37886;53.174;6.368;2023-02-22T00:43:05;8.40;99.90
51839;DHT22;37886;53.174;6.368;2023-02-22T00:45:33;8.30;99.90
51839;DHT22;37886;53.174;6.368;2023-02-22T00:48:00;8.30;99.90
51839;DHT22;37886;53.174;6.368;2023-02-22T00:50:27;8.30;99.90
51839;DHT22;37886;53.174;6.368;2023-02-22T00:52:55;8.30;99.90
51839;DHT22;37886;53.174;6.368;2023-02-22T00:55:32;8.30;99.90
51839;DHT22;37886;53.174;6.368;2023-02-22T00:57:58;8.30;99.90
51839;DHT22;37886;53.174;6.368;2023-02-22T01:00:28;8.20;99.90
51839;DHT22;37886;53.174;6.368;2023-02-22T01:02:54;8.30;99.90
51839;DHT22;37886;53.174;6.368;2023-02-22T01:05:23;8.30;99.90
51839;DHT22;37886;53.174;6.368;2023-02-22T01:07:50;8.30;99.90
51839;DHT22;37886;53.174;6.368;2023-02-22T01:10:21;8.30;99.90
51839;DHT22;37886;53.174;6.368;2023-02-22T01:12:47;8.30;99.90
51839;DHT22;37886;53.174;6.368;2023-02-22T01:15:15;8.20;99.90
51839;DHT22;37886;53.174;6.368;2023-02-22T01:17:41;8.20;99.90
51839;DHT22;37886;53.174;6.368;2023-02-22T01:20:09;8.20;99.90
51839;DHT22;37886;53.174;6.368;2023-02-22T01:22:40;8.20;99.90
51839;DHT22;37886;53.174;6.368;2023-02-22T01:25:07;8.20;99.90
51839;DHT22;37886;53.174;6.368;2023-02-22T01:27:33;8.20;99.90
51839;DHT22;37886;53.174;6.368;2023-02-22T01:29:59;8.20;99.90
51839;DHT22;37886;53.174;6.368;2023-02-22T01:32:25;8.20;99.90
51839;DHT22;37886;53.174;6.368;2023-02-22T01:34:54;8.20;99.90
51839;DHT22;37886;53.174;6.368;2023-02-22T01:37:19;8.10;99.90
51839;DHT22;37886;53.174;6.368;2023-02-22T01:39:45;8.10;99.90
51839;DHT22;37886;53.174;6.368;2023-02-22T01:42:11;8.10;99.90
51839;DHT22;37886;53.174;6.368;2023-02-22T01:44:38;8.10;99.90
51839;DHT22;37886;53.174;6.368;2023-02-22T01:47:06;8.00;99.90
51839;DHT22;37886;53.174;6.368;2023-02-22T01:49:46;8.10;99.90
51839;DHT22;37886;53.174;6.368;2023-02-22T01:52:16;8.10;99.90
51839;DHT22;37886;53.174;6.368;2023-02-22T01:54:56;8.10;99.90
51839;DHT22;37886;53.174;6.368;2023-02-22T01:57:30;8.10;99.90
51839;DHT22;37886;53.174;6.368;2023-02-22T02:00:00;8.10;99.90
51839;DHT22;37886;53.174;6.368;2023-02-22T02:02:27;8.10;99.90
51839;DHT22;37886;53.174;6.368;2023-02-22T02:04:54;8.10;99.90
51839;DHT22;37886;53.174;6.368;2023-02-22T02:07:21;8.10;99.90
51839;DHT22;37886;53.174;6.368;2023-02-22T02:10:30;8.10;99.90
51839;DHT22;37886;53.174;6.368;2023-02-22T02:12:44;8.10;99.90
51839;DHT22;37886;53.174;6.368;2023-02-22T02:15:32;8.10;99.90
51839;DHT22;37886;53.174;6.368;2023-02-22T02:18:07;8.10;99.90
51839;DHT22;37886;53.174;6.368;2023-02-22T02:32:55;8.10;99.90
51839;DHT22;37886;53.174;6.368;2023-02-22T02:35:49;8.10;99.90
51839;DHT22;37886;53.174;6.368;2023-02-22T02:41:16;8.00;99.90
51839;DHT22;37886;53.174;6.368;2023-02-22T02:44:08;8.00;99.90
51839;DHT22;37886;53.174;6.368;2023-02-22T02:49:18;8.00;99.90
51839;DHT22;37886;53.174;6.368;2023-02-22T02:51:50;8.00;99.90
51839;DHT22;37886;53.174;6.368;2023-02-22T02:54:17;8.10;99.90
51839;DHT22;37886;53.174;6.368;2023-02-22T02:56:44;8.10;99.90
51839;DHT22;37886;53.174;6.368;2023-02-22T02:59:32;8.00;99.90
51839;DHT22;37886;53.174;6.368;2023-02-22T03:08:00;8.00;99.90
51839;DHT22;37886;53.174;6.368;2023-02-22T03:18:58;8.00;99.90
51839;DHT22;37886;53.174;6.368;2023-02-22T03:21:50;8.00;99.90
51839;DHT22;37886;53.174;6.368;2023-02-22T03:24:32;8.00;99.90
51839;DHT22;37886;53.174;6.368;2023-02-22T03:29:44;8.00;99.90
51839;DHT22;37886;53.174;6.368;2023-02-22T03:32:23;8.00;99.90
51839;DHT22;37886;53.174;6.368;2023-02-22T03:35:06;8.00;99.90
51839;DHT22;37886;53.174;6.368;2023-02-22T03:37:35;8.00;99.90
51839;DHT22;37886;53.174;6.368;2023-02-22T03:40:04;8.00;99.90
51839;DHT22;37886;53.174;6.368;2023-02-22T03:42:45;7.90;99.90
51839;DHT22;37886;53.174;6.368;2023-02-22T03:45:14;7.90;99.90
51839;DHT22;37886;53.174;6.368;2023-02-22T03:47:46;7.90;99.90
51839;DHT22;37886;53.174;6.368;2023-02-22T03:50:19;7.90;99.90
51839;DHT22;37886;53.174;6.368;2023-02-22T03:52:45;7.90;99.90
51839;DHT22;37886;53.174;6.368;2023-02-22T03:55:13;7.90;99.90
51839;DHT22;37886;53.174;6.368;2023-02-22T03:57:49;7.90;99.90
51839;DHT22;37886;53.174;6.368;2023-02-22T04:00:20;7.90;99.90
51839;DHT22;37886;53.174;6.368;2023-02-22T04:02:47;7.90;99.90
51839;DHT22;37886;53.174;6.368;2023-02-22T04:05:13;8.00;99.90
51839;DHT22;37886;53.174;6.368;2023-02-22T04:07:40;8.00;99.90
51839;DHT22;37886;53.174;6.368;2023-02-22T04:10:06;7.90;99.90
51839;DHT22;37886;53.174;6.368;2023-02-22T04:12:35;7.90;99.90
51839;DHT22;37886;53.174;6.368;2023-02-22T04:15:03;7.90;99.90
51839;DHT22;37886;53.174;6.368;2023-02-22T04:17:29;7.90;99.90
51839;DHT22;37886;53.174;6.368;2023-02-22T04:19:55;7.90;99.90
51839;DHT22;37886;53.174;6.368;2023-02-22T04:22:21;7.90;99.90
51839;DHT22;37886;53.174;6.368;2023-02-22T04:24:46;7.90;99.90
51839;DHT22;37886;53.174;6.368;2023-02-22T04:27:14;7.90;99.90
51839;DHT22;37886;53.174;6.368;2023-02-22T04:29:39;7.90;99.90
51839;DHT22;37886;53.174;6.368;2023-02-22T04:32:05;7.90;99.90
51839;DHT22;37886;53.174;6.368;2023-02-22T04:34:32;7.80;99.90
51839;DHT22;37886;53.174;6.368;2023-02-22T04:36:58;7.80;99.90
51839;DHT22;37886;53.174;6.368;2023-02-22T04:39:24;7.90;99.90
51839;DHT22;37886;53.174;6.368;2023-02-22T04:41:49;7.90;99.90
51839;DHT22;37886;53.174;6.368;2023-02-22T04:44:15;7.90;99.90
51839;DHT22;37886;53.174;6.368;2023-02-22T04:46:41;7.90;99.90
51839;DHT22;37886;53.174;6.368;2023-02-22T04:49:07;7.90;99.90
51839;DHT22;37886;53.174;6.368;2023-02-22T04:51:32;7.80;99.90
51839;DHT22;37886;53.174;6.368;2023-02-22T04:54:00;7.90;99.90
51839;DHT22;37886;53.174;6.368;2023-02-22T04:56:25;7.90;99.90
51839;DHT22;37886;53.174;6.368;2023-02-22T04:58:51;7.90;99.90
51839;DHT22;37886;53.174;6.368;2023-02-22T05:01:17;7.90;99.90
51839;DHT22;37886;53.174;6.368;2023-02-22T05:03:43;7.90;99.90
51839;DHT22;37886;53.174;6.368;2023-02-22T05:06:09;7.90;99.90
51839;DHT22;37886;53.174;6.368;2023-02-22T05:08:36;7.90;99.90
51839;DHT22;37886;53.174;6.368;2023-02-22T05:11:02;7.80;99.90
51839;DHT22;37886;53.174;6.368;2023-02-22T05:13:30;7.90;99.90
51839;DHT22;37886;53.174;6.368;2023-02-22T05:15:55;7.90;99.90
51839;DHT22;37886;53.174;6.368;2023-02-22T05:18:21;7.90;99.90
51839;DHT22;37886;53.174;6.368;2023-02-22T05:20:47;7.90;99.90
51839;DHT22;37886;53.174;6.368;2023-02-22T05:23:13;7.80;99.90
51839;DHT22;37886;53.174;6.368;2023-02-22T05:25:38;7.80;99.90
51839;DHT22;37886;53.174;6.368;2023-02-22T05:28:10;7.70;99.90
51839;DHT22;37886;53.174;6.368;2023-02-22T05:30:37;7.70;99.90
51839;DHT22;37886;53.174;6.368;2023-02-22T05:33:06;7.70;99.90
51839;DHT22;37886;53.174;6.368;2023-02-22T05:35:32;7.70;99.90
51839;DHT22;37886;53.174;6.368;2023-02-22T05:37:58;7.70;99.90
51839;DHT22;37886;53.174;6.368;2023-02-22T05:40:27;7.70;99.90
51839;DHT22;37886;53.174;6.368;2023-02-22T05:42:53;7.70;99.90
51839;DHT22;37886;53.174;6.368;2023-02-22T05:45:20;7.70;99.90
51839;DHT22;37886;53.174;6.368;2023-02-22T05:47:48;7.70;99.90
51839;DHT22;37886;53.174;6.368;2023-02-22T05:50:14;7.70;99.90
51839;DHT22;37886;53.174;6.368;2023-02-22T05:52:40;7.70;99.90
51839;DHT22;37886;53.174;6.368;2023-02-22T05:55:08;7.70;99.90
51839;DHT22;37886;53.174;6.368;2023-02-22T05:57:34;7.70;99.90
51839;DHT22;37886;53.174;6.368;2023-02-22T06:00:00;7.70;99.90
51839;DHT22;37886;53.174;6.368;2023-02-22T06:02:26;7.60;99.90
51839;DHT22;37886;53.174;6.368;2023-02-22T06:04:51;7.60;99.90
51839;DHT22;37886;53.174;6.368;2023-02-22T06:07:17;7.70;99.90
51839;DHT22;37886;53.174;6.368;2023-02-22T06:09:43;7.70;99.90
51839;DHT22;37886;53.174;6.368;2023-02-22T06:12:09;7.70;99.90
51839;DHT22;37886;53.174;6.368;2023-02-22T06:14:35;7.60;99.90
51839;DHT22;37886;53.174;6.368;2023-02-22T06:17:01;7.60;99.90
51839;DHT22;37886;53.174;6.368;2023-02-22T06:19:27;7.60;99.90
51839;DHT22;37886;53.174;6.368;2023-02-22T06:21:55;7.50;99.90
51839;DHT22;37886;53.174;6.368;2023-02-22T06:24:22;7.50;99.90
51839;DHT22;37886;53.174;6.368;2023-02-22T06:26:56;7.50;99.90
51839;DHT22;37886;53.174;6.368;2023-02-22T06:29:23;7.50;99.90
51839;DHT22;37886;53.174;6.368;2023-02-22T06:31:49;7.50;99.90
51839;DHT22;37886;53.174;6.368;2023-02-22T06:34:15;7.50;99.90
51839;DHT22;37886;53.174;6.368;2023-02-22T06:36:41;7.50;99.90
51839;DHT22;37886;53.174;6.368;2023-02-22T06:39:07;7.50;99.90
51839;DHT22;37886;53.174;6.368;2023-02-22T06:41:39;7.50;99.90
51839;DHT22;37886;53.174;6.368;2023-02-22T06:44:05;7.40;99.90
51839;DHT22;37886;53.174;6.368;2023-02-22T06:46:31;7.40;99.90
51839;DHT22;37886;53.174;6.368;2023-02-22T06:48:57;7.50;99.90
51839;DHT22;37886;53.174;6.368;2023-02-22T06:51:24;7.50;99.90
51839;DHT22;37886;53.174;6.368;2023-02-22T06:53:51;7.50;99.90
51839;DHT22;37886;53.174;6.368;2023-02-22T06:56:16;7.50;99.90
51839;DHT22;37886;53.174;6.368;2023-02-22T06:58:42;7.50;99.90
51839;DHT22;37886;53.174;6.368;2023-02-22T07:01:08;7.50;99.90
51839;DHT22;37886;53.174;6.368;2023-02-22T07:03:34;7.50;99.90
51839;DHT22;37886;53.174;6.368;2023-02-22T07:06:00;7.50;99.90
51839;DHT22;37886;53.174;6.368;2023-02-22T07:08:27;7.60;99.90
51839;DHT22;37886;53.174;6.368;2023-02-22T07:10:53;7.60;99.90
51839;DHT22;37886;53.174;6.368;2023-02-22T07:13:19;7.60;99.90
51839;DHT22;37886;53.174;6.368;2023-02-22T07:15:45;7.60;99.90
51839;DHT22;37886;53.174;6.368;2023-02-22T07:18:11;7.60;99.90
51839;DHT22;37886;53.174;6.368;2023-02-22T07:20:37;7.50;99.90
51839;DHT22;37886;53.174;6.368;2023-02-22T07:23:03;7.40;99.90
51839;DHT22;37886;53.174;6.368;2023-02-22T07:25:29;7.30;99.90
51839;DHT22;37886;53.174;6.368;2023-02-22T07:27:55;7.40;99.90
51839;DHT22;37886;53.174;6.368;2023-02-22T07:30:22;7.30;99.90
51839;DHT22;37886;53.174;6.368;2023-02-22T07:32:50;7.30;99.90
51839;DHT22;37886;53.174;6.368;2023-02-22T07:35:17;7.30;99.90
51839;DHT22;37886;53.174;6.368;2023-02-22T07:37:43;7.30;99.90
51839;DHT22;37886;53.174;6.368;2023-02-22T07:40:10;7.30;99.90
51839;DHT22;37886;53.174;6.368;2023-02-22T07:43:02;7.30;99.90
51839;DHT22;37886;53.174;6.368;2023-02-22T07:45:33;7.30;99.90
51839;DHT22;37886;53.174;6.368;2023-02-22T07:48:00;7.40;99.90
51839;DHT22;37886;53.174;6.368;2023-02-22T07:50:28;7.40;99.90
51839;DHT22;37886;53.174;6.368;2023-02-22T07:52:59;7.40;99.90
51839;DHT22;37886;53.174;6.368;2023-02-22T07:55:27;7.50;99.90
51839;DHT22;37886;53.174;6.368;2023-02-22T07:57:56;7.70;99.90
51839;DHT22;37886;53.174;6.368;2023-02-22T08:00:31;7.80;99.90
51839;DHT22;37886;53.174;6.368;2023-02-22T08:02:59;7.70;99.90
51839;DHT22;37886;53.174;6.368;2023-02-22T08:05:26;7.70;99.90
51839;DHT22;37886;53.174;6.368;2023-02-22T08:07:52;7.70;99.90
51839;DHT22;37886;53.174;6.368;2023-02-22T08:10:20;7.80;99.90
51839;DHT22;37886;53.174;6.368;2023-02-22T08:12:46;7.90;99.90
51839;DHT22;37886;53.174;6.368;2023-02-22T08:15:35;8.00;99.90
51839;DHT22;37886;53.174;6.368;2023-02-22T08:18:03;7.80;99.90
51839;DHT22;37886;53.174;6.368;2023-02-22T08:20:29;7.70;99.90
51839;DHT22;37886;53.174;6.368;2023-02-22T08:22:56;7.70;99.90
51839;DHT22;37886;53.174;6.368;2023-02-22T08:25:24;7.80;99.90
51839;DHT22;37886;53.174;6.368;2023-02-22T08:27:50;7.90;99.90
51839;DHT22;37886;53.174;6.368;2023-02-22T08:30:21;7.90;99.90
51839;DHT22;37886;53.174;6.368;2023-02-22T08:32:48;7.90;99.90
51839;DHT22;37886;53.174;6.368;2023-02-22T08:35:16;7.90;99.90
51839;DHT22;37886;53.174;6.368;2023-02-22T08:37:47;8.00;99.90
51839;DHT22;37886;53.174;6.368;2023-02-22T08:40:15;8.10;99.90
51839;DHT22;37886;53.174;6.368;2023-02-22T08:42:42;8.10;99.90
51839;DHT22;37886;53.174;6.368;2023-02-22T08:45:08;8.00;99.90
51839;DHT22;37886;53.174;6.368;2023-02-22T08:47:37;8.00;99.90
51839;DHT22;37886;53.174;6.368;2023-02-22T08:50:03;8.10;99.90
51839;DHT22;37886;53.174;6.368;2023-02-22T08:52:29;8.20;99.90
51839;DHT22;37886;53.174;6.368;2023-02-22T08:54:55;8.20;99.90
51839;DHT22;37886;53.174;6.368;2023-02-22T08:57:21;8.10;99.90
51839;DHT22;37886;53.174;6.368;2023-02-22T08:59:47;8.20;99.90
51839;DHT22;37886;53.174;6.368;2023-02-22T09:02:17;8.20;99.90
51839;DHT22;37886;53.174;6.368;2023-02-22T09:04:45;8.20;99.90
51839;DHT22;37886;53.174;6.368;2023-02-22T09:07:11;8.20;99.90
51839;DHT22;37886;53.174;6.368;2023-02-22T09:09:37;8.20;99.90
51839;DHT22;37886;53.174;6.368;2023-02-22T09:12:03;8.30;99.90
51839;DHT22;37886;53.174;6.368;2023-02-22T09:14:29;8.30;99.90
51839;DHT22;37886;53.174;6.368;2023-02-22T09:16:54;8.20;99.90
51839;DHT22;37886;53.174;6.368;2023-02-22T09:19:20;8.00;99.90
51839;DHT22;37886;53.174;6.368;2023-02-22T09:21:55;8.10;99.90
51839;DHT22;37886;53.174;6.368;2023-02-22T09:24:21;8.10;99.90
51839;DHT22;37886;53.174;6.368;2023-02-22T09:26:47;8.00;99.90
51839;DHT22;37886;53.174;6.368;2023-02-22T09:29:18;8.00;99.90
51839;DHT22;37886;53.174;6.368;2023-02-22T09:31:47;8.20;99.90
51839;DHT22;37886;53.174;6.368;2023-02-22T09:34:14;8.20;99.90
51839;DHT22;37886;53.174;6.368;2023-02-22T09:36:43;8.20;99.90
51839;DHT22;37886;53.174;6.368;2023-02-22T09:39:12;8.40;99.90
51839;DHT22;37886;53.174;6.368;2023-02-22T09:47:19;8.30;99.90
51839;DHT22;37886;53.174;6.368;2023-02-22T09:50:01;8.30;99.90
51839;DHT22;37886;53.174;6.368;2023-02-22T09:52:35;8.30;99.90
51839;DHT22;37886;53.174;6.368;2023-02-22T09:55:25;8.30;99.90
51839;DHT22;37886;53.174;6.368;2023-02-22T09:57:56;8.00;99.90
51839;DHT22;37886;53.174;6.368;2023-02-22T10:00:35;7.90;99.90
51839;DHT22;37886;53.174;6.368;2023-02-22T10:06:15;8.00;99.90
51839;DHT22;37886;53.174;6.368;2023-02-22T10:08:42;8.20;99.90
51839;DHT22;37886;53.174;6.368;2023-02-22T10:27:26;8.30;99.90
51839;DHT22;37886;53.174;6.368;2023-02-22T10:30:00;8.30;99.90
51839;DHT22;37886;53.174;6.368;2023-02-22T10:32:33;8.50;99.90
51839;DHT22;37886;53.174;6.368;2023-02-22T10:35:00;8.60;99.90
51839;DHT22;37886;53.174;6.368;2023-02-22T10:37:33;8.50;99.90
51839;DHT22;37886;53.174;6.368;2023-02-22T10:42:42;8.40;99.90
51839;DHT22;37886;53.174;6.368;2023-02-22T10:45:21;8.50;99.90
51839;DHT22;37886;53.174;6.368;2023-02-22T10:47:49;8.60;99.90
51839;DHT22;37886;53.174;6.368;2023-02-22T10:50:15;8.80;99.90
51839;DHT22;37886;53.174;6.368;2023-02-22T10:52:41;8.80;99.90
51839;DHT22;37886;53.174;6.368;2023-02-22T10:55:13;9.00;99.90
51839;DHT22;37886;53.174;6.368;2023-02-22T10:57:40;9.10;99.90
51839;DHT22;37886;53.174;6.368;2023-02-22T11:02:56;9.30;99.90
51839;DHT22;37886;53.174;6.368;2023-02-22T11:05:48;9.50;99.90
51839;DHT22;37886;53.174;6.368;2023-02-22T11:10:43;9.00;99.90
51839;DHT22;37886;53.174;6.368;2023-02-22T11:13:38;9.10;99.90
51839;DHT22;37886;53.174;6.368;2023-02-22T11:16:19;9.40;99.90
51839;DHT22;37886;53.174;6.368;2023-02-22T11:18:48;9.40;99.90
51839;DHT22;37886;53.174;6.368;2023-02-22T11:21:20;9.40;99.90
51839;DHT22;37886;53.174;6.368;2023-02-22T11:23:47;9.40;99.90
51839;DHT22;37886;53.174;6.368;2023-02-22T11:26:17;9.60;99.90
51839;DHT22;37886;53.174;6.368;2023-02-22T11:28:52;9.50;99.90
51839;DHT22;37886;53.174;6.368;2023-02-22T11:31:26;9.40;99.90
51839;DHT22;37886;53.174;6.368;2023-02-22T11:33:59;9.50;99.90
51839;DHT22;37886;53.174;6.368;2023-02-22T11:36:38;9.50;99.90
51839;DHT22;37886;53.174;6.368;2023-02-22T11:39:27;9.30;99.90
51839;DHT22;37886;53.174;6.368;2023-02-22T11:41:56;9.10;99.90
51839;DHT22;37886;53.174;6.368;2023-02-22T11:44:23;9.10;99.90
51839;DHT22;37886;53.174;6.368;2023-02-22T11:46:50;9.60;99.90
51839;DHT22;37886;53.174;6.368;2023-02-22T11:49:18;9.80;99.90
51839;DHT22;37886;53.174;6.368;2023-02-22T11:54:53;9.80;99.90
51839;DHT22;37886;53.174;6.368;2023-02-22T12:14:18;9.80;99.90
51839;DHT22;37886;53.174;6.368;2023-02-22T12:19:38;9.80;99.90
51839;DHT22;37886;53.174;6.368;2023-02-22T12:22:15;9.90;99.90
51839;DHT22;37886;53.174;6.368;2023-02-22T12:24:52;9.90;99.90
51839;DHT22;37886;53.174;6.368;2023-02-22T12:27:24;10.30;99.90
51839;DHT22;37886;53.174;6.368;2023-02-22T12:29:57;10.30;99.90
51839;DHT22;37886;53.174;6.368;2023-02-22T12:32:45;10.50;99.90
51839;DHT22;37886;53.174;6.368;2023-02-22T12:35:26;10.40;99.90
51839;DHT22;37886;53.174;6.368;2023-02-22T12:40:55;10.30;99.90
51839;DHT22;37886;53.174;6.368;2023-02-22T12:43:30;10.50;99.90
51839;DHT22;37886;53.174;6.368;2023-02-22T12:46:16;10.40;99.90
51839;DHT22;37886;53.174;6.368;2023-02-22T12:52:03;10.50;99.90
51839;DHT22;37886;53.174;6.368;2023-02-22T12:57:13;10.30;99.90
51839;DHT22;37886;53.174;6.368;2023-02-22T12:59:47;10.20;99.90
51839;DHT22;37886;53.174;6.368;2023-02-22T13:02:27;10.10;99.90
51839;DHT22;37886;53.174;6.368;2023-02-22T13:04:53;10.50;99.90
51839;DHT22;37886;53.174;6.368;2023-02-22T13:12:49;10.60;99.90
51839;DHT22;37886;53.174;6.368;2023-02-22T13:15:41;10.70;99.90
51839;DHT22;37886;53.174;6.368;2023-02-22T13:21:18;10.60;99.90
51839;DHT22;37886;53.174;6.368;2023-02-22T13:23:53;10.40;99.90
51839;DHT22;37886;53.174;6.368;2023-02-22T13:26:58;10.20;99.90
51839;DHT22;37886;53.174;6.368;2023-02-22T13:29:34;10.20;99.90
51839;DHT22;37886;53.174;6.368;2023-02-22T13:32:11;10.20;99.90
51839;DHT22;37886;53.174;6.368;2023-02-22T13:35:00;10.40;99.90
51839;DHT22;37886;53.174;6.368;2023-02-22T13:51:52;9.80;99.90
51839;DHT22;37886;53.174;6.368;2023-02-22T13:57:02;9.60;99.90
51839;DHT22;37886;53.174;6.368;2023-02-22T13:59:35;9.70;99.90
51839;DHT22;37886;53.174;6.368;2023-02-22T14:02:02;9.70;99.90
51839;DHT22;37886;53.174;6.368;2023-02-22T14:09:51;9.80;99.90
51839;DHT22;37886;53.174;6.368;2023-02-22T14:18:20;10.00;99.90
51839;DHT22;37886;53.174;6.368;2023-02-22T14:20:37;10.00;99.90
51839;DHT22;37886;53.174;6.368;2023-02-22T14:25:54;9.80;99.90
51839;DHT22;37886;53.174;6.368;2023-02-22T14:28:41;9.80;99.90
51839;DHT22;37886;53.174;6.368;2023-02-22T14:31:18;9.80;99.90
51839;DHT22;37886;53.174;6.368;2023-02-22T14:39:26;9.80;99.90
51839;DHT22;37886;53.174;6.368;2023-02-22T14:41:59;9.90;99.90
51839;DHT22;37886;53.174;6.368;2023-02-22T14:47:27;9.90;99.90
51839;DHT22;37886;53.174;6.368;2023-02-22T14:50:03;9.80;99.90
51839;DHT22;37886;53.174;6.368;2023-02-22T14:52:32;9.90;99.90
51839;DHT22;37886;53.174;6.368;2023-02-22T14:55:12;10.00;99.90
51839;DHT22;37886;53.174;6.368;2023-02-22T14:57:57;10.00;99.90
51839;DHT22;37886;53.174;6.368;2023-02-22T15:00:40;10.00;99.90
51839;DHT22;37886;53.174;6.368;2023-02-22T15:05:42;9.90;99.90
51839;DHT22;37886;53.174;6.368;2023-02-22T15:08:08;9.80;99.90
51839;DHT22;37886;53.174;6.368;2023-02-22T15:13:17;9.70;99.90
51839;DHT22;37886;53.174;6.368;2023-02-22T15:16:12;9.70;99.90
51839;DHT22;37886;53.174;6.368;2023-02-22T15:18:44;9.70;99.90
51839;DHT22;37886;53.174;6.368;2023-02-22T15:21:19;9.60;99.90
51839;DHT22;37886;53.174;6.368;2023-02-22T15:24:02;9.60;99.90
51839;DHT22;37886;53.174;6.368;2023-02-22T15:26:41;9.60;99.90
51839;DHT22;37886;53.174;6.368;2023-02-22T15:29:19;9.80;99.90
51839;DHT22;37886;53.174;6.368;2023-02-22T15:31:45;9.70;99.90
51839;DHT22;37886;53.174;6.368;2023-02-22T15:36:37;9.70;99.90
51839;DHT22;37886;53.174;6.368;2023-02-22T15:39:02;9.70;99.90
51839;DHT22;37886;53.174;6.368;2023-02-22T15:41:34;9.70;99.90
51839;DHT22;37886;53.174;6.368;2023-02-22T15:44:06;9.70;99.90
51839;DHT22;37886;53.174;6.368;2023-02-22T15:46:32;9.60;99.90
51839;DHT22;37886;53.174;6.368;2023-02-22T15:51:40;9.50;99.90
51839;DHT22;37886;53.174;6.368;2023-02-22T15:54:07;9.40;99.90
51839;DHT22;37886;53.174;6.368;2023-02-22T15:56:46;9.40;99.90
51839;DHT22;37886;53.174;6.368;2023-02-22T15:59:14;9.40;99.90
51839;DHT22;37886;53.174;6.368;2023-02-22T16:01:42;9.40;99.90
51839;DHT22;37886;53.174;6.368;2023-02-22T16:04:19;9.30;99.90
51839;DHT22;37886;53.174;6.368;2023-02-22T16:06:46;9.30;99.90
51839;DHT22;37886;53.174;6.368;2023-02-22T16:09:16;9.30;99.90
51839;DHT22;37886;53.174;6.368;2023-02-22T16:11:47;9.30;99.90
51839;DHT22;37886;53.174;6.368;2023-02-22T16:14:48;9.30;99.90
51839;DHT22;37886;53.174;6.368;2023-02-22T16:22:45;9.20;99.90
51839;DHT22;37886;53.174;6.368;2023-02-22T16:28:00;9.10;99.90
51839;DHT22;37886;53.174;6.368;2023-02-22T16:30:38;9.00;99.90
51839;DHT22;37886;53.174;6.368;2023-02-22T16:33:06;9.00;99.90
51839;DHT22;37886;53.174;6.368;2023-02-22T16:35:42;9.00;99.90
51839;DHT22;37886;53.174;6.368;2023-02-22T16:38:16;8.90;99.90
51839;DHT22;37886;53.174;6.368;2023-02-22T16:40:48;8.90;99.90
51839;DHT22;37886;53.174;6.368;2023-02-22T16:43:23;8.80;99.90
51839;DHT22;37886;53.174;6.368;2023-02-22T16:45:52;8.80;99.90
51839;DHT22;37886;53.174;6.368;2023-02-22T16:48:25;8.80;99.90
51839;DHT22;37886;53.174;6.368;2023-02-22T16:50:54;8.70;99.90
51839;DHT22;37886;53.174;6.368;2023-02-22T16:53:25;8.70;99.90
51839;DHT22;37886;53.174;6.368;2023-02-22T16:56:01;8.70;99.90
51839;DHT22;37886;53.174;6.368;2023-02-22T16:58:28;8.70;99.90
51839;DHT22;37886;53.174;6.368;2023-02-22T17:00:57;8.60;99.90
51839;DHT22;37886;53.174;6.368;2023-02-22T17:03:24;8.60;99.90
51839;DHT22;37886;53.174;6.368;2023-02-22T17:05:50;8.60;99.90
51839;DHT22;37886;53.174;6.368;2023-02-22T17:08:16;8.50;99.90
51839;DHT22;37886;53.174;6.368;2023-02-22T17:10:42;8.50;99.90
51839;DHT22;37886;53.174;6.368;2023-02-22T17:13:08;8.50;99.90
51839;DHT22;37886;53.174;6.368;2023-02-22T17:15:34;8.50;99.90
51839;DHT22;37886;53.174;6.368;2023-02-22T17:18:05;8.50;99.90
51839;DHT22;37886;53.174;6.368;2023-02-22T17:20:35;8.50;99.90
51839;DHT22;37886;53.174;6.368;2023-02-22T17:23:06;8.50;99.90
51839;DHT22;37886;53.174;6.368;2023-02-22T17:28:03;8.50;99.90
51839;DHT22;37886;53.174;6.368;2023-02-22T17:30:28;8.50;99.90
51839;DHT22;37886;53.174;6.368;2023-02-22T17:32:58;8.50;99.90
51839;DHT22;37886;53.174;6.368;2023-02-22T17:35:29;8.50;99.90
51839;DHT22;37886;53.174;6.368;2023-02-22T17:37:57;8.50;99.90
51839;DHT22;37886;53.174;6.368;2023-02-22T17:40:25;8.40;99.90
51839;DHT22;37886;53.174;6.368;2023-02-22T17:42:51;8.40;99.90
51839;DHT22;37886;53.174;6.368;2023-02-22T17:45:23;8.40;99.90
51839;DHT22;37886;53.174;6.368;2023-02-22T17:47:50;8.40;99.90
51839;DHT22;37886;53.174;6.368;2023-02-22T17:50:17;8.40;99.90
51839;DHT22;37886;53.174;6.368;2023-02-22T17:52:43;8.30;99.90
51839;DHT22;37886;53.174;6.368;2023-02-22T17:55:10;8.20;99.90
51839;DHT22;37886;53.174;6.368;2023-02-22T17:57:37;8.20;99.90
51839;DHT22;37886;53.174;6.368;2023-02-22T18:00:06;8.20;99.90
51839;DHT22;37886;53.174;6.368;2023-02-22T18:02:41;8.20;99.90
51839;DHT22;37886;53.174;6.368;2023-02-22T18:05:12;8.20;99.90
51839;DHT22;37886;53.174;6.368;2023-02-22T18:07:41;8.20;99.90
51839;DHT22;37886;53.174;6.368;2023-02-22T18:10:06;8.20;99.90
51839;DHT22;37886;53.174;6.368;2023-02-22T18:12:40;8.10;99.90
51839;DHT22;37886;53.174;6.368;2023-02-22T18:15:07;8.10;99.90
51839;DHT22;37886;53.174;6.368;2023-02-22T18:17:36;8.00;99.90
51839;DHT22;37886;53.174;6.368;2023-02-22T18:20:05;8.10;99.90
51839;DHT22;37886;53.174;6.368;2023-02-22T18:22:41;8.10;99.90
51839;DHT22;37886;53.174;6.368;2023-02-22T18:25:11;8.00;99.90
51839;DHT22;37886;53.174;6.368;2023-02-22T18:27:39;8.00;99.90
51839;DHT22;37886;53.174;6.368;2023-02-22T18:30:05;8.00;99.90
51839;DHT22;37886;53.174;6.368;2023-02-22T18:32:31;8.00;99.90
51839;DHT22;37886;53.174;6.368;2023-02-22T18:34:58;7.90;99.90
51839;DHT22;37886;53.174;6.368;2023-02-22T18:37:24;7.90;99.90
51839;DHT22;37886;53.174;6.368;2023-02-22T18:39:53;7.90;99.90
51839;DHT22;37886;53.174;6.368;2023-02-22T18:42:23;8.00;99.90
51839;DHT22;37886;53.174;6.368;2023-02-22T18:44:50;8.00;99.90
51839;DHT22;37886;53.174;6.368;2023-02-22T18:47:17;8.00;99.90
51839;DHT22;37886;53.174;6.368;2023-02-22T18:49:43;8.00;99.90
51839;DHT22;37886;53.174;6.368;2023-02-22T18:52:08;8.00;99.90